Terminal Aerodrome Forecast
Issued by NWS

Current Version | Previous Version | Text Only | Print | Product List | Glossary On
Versions: 1 2 3 4 5 6 7 8 9 10 11 12 13 14
160
FTUS46 KHNX 232341
TAFVIS
TAF
KVIS 232341Z 2400/2424 30005KT P6SM BKN060
     FM240100 VRB04KT P6SM SCT050 BKN100
     FM240800 VRB03KT 4SM BR BKN025
      TEMPO 2414/2418 1SM BR BKN005
     FM242000 VRB03KT 6SM HZ BKN250=

USA.gov is the U.S. government's official web portal to all federal, state and local government web resources and services.